createdAt,value
2023-05-10T00:02:46.745Z,99.90
2023-05-10T00:05:49.919Z,99.90
2023-05-10T00:08:53.012Z,99.90
2023-05-10T00:11:56.129Z,99.90
2023-05-10T00:14:59.222Z,99.90
2023-05-10T00:18:03.746Z,99.90
2023-05-10T00:21:07.556Z,99.90
2023-05-10T00:24:10.668Z,99.90
2023-05-10T00:27:13.763Z,99.90
2023-05-10T00:30:17.035Z,99.90
2023-05-10T00:33:21.683Z,99.90
2023-05-10T00:36:24.856Z,99.90
2023-05-10T00:39:29.648Z,99.90
2023-05-10T00:42:32.832Z,99.90
2023-05-10T00:45:37.687Z,99.90
2023-05-10T00:48:42.282Z,99.90
2023-05-10T00:51:45.716Z,99.90
2023-05-10T00:54:49.750Z,99.90
2023-05-10T00:57:52.952Z,99.90
2023-05-10T01:00:58.114Z,99.90
2023-05-10T01:04:02.792Z,99.90
2023-05-10T01:07:06.065Z,99.90
2023-05-10T01:10:10.588Z,99.90
2023-05-10T01:13:14.683Z,99.90
2023-05-10T01:16:18.701Z,99.90
2023-05-10T01:19:27.356Z,99.90
2023-05-10T01:22:52.197Z,99.90
2023-05-10T01:26:32.287Z,99.90
2023-05-10T01:30:16.001Z,99.90
2023-05-10T01:33:27.553Z,99.90
2023-05-10T01:36:34.911Z,99.90
2023-05-10T01:39:46.739Z,99.90
2023-05-10T01:42:54.145Z,99.90
2023-05-10T01:46:11.340Z,99.90
2023-05-10T01:49:23.496Z,99.90
2023-05-10T01:52:32.325Z,99.90
2023-05-10T01:55:45.090Z,99.90
2023-05-10T01:58:50.951Z,99.90
2023-05-10T02:01:55.134Z,99.90
2023-05-10T02:05:00.437Z,99.90
2023-05-10T02:08:05.170Z,99.90
2023-05-10T02:11:09.180Z,99.90
2023-05-10T02:14:13.583Z,99.90
2023-05-10T02:17:17.455Z,99.90
2023-05-10T02:20:23.893Z,99.90
2023-05-10T02:23:28.319Z,99.90
2023-05-10T02:26:33.516Z,99.90
2023-05-10T02:29:38.050Z,99.90
2023-05-10T02:32:41.901Z,99.90
2023-05-10T02:35:46.925Z,99.90
2023-05-10T02:38:51.883Z,99.90
2023-05-10T02:41:56.834Z,99.90
2023-05-10T02:45:03.531Z,99.90
2023-05-10T02:48:07.056Z,99.90
2023-05-10T02:51:14.784Z,99.90
2023-05-10T02:54:21.718Z,99.90
2023-05-10T02:57:29.471Z,99.90
2023-05-10T03:00:33.195Z,99.90
2023-05-10T03:03:36.355Z,99.90
2023-05-10T03:06:40.945Z,99.90
2023-05-10T03:09:44.335Z,99.90
2023-05-10T03:13:04.435Z,99.90
2023-05-10T03:16:12.799Z,99.90
2023-05-10T03:19:22.936Z,99.90
2023-05-10T03:22:32.744Z,99.90
2023-05-10T03:25:36.323Z,99.90
2023-05-10T03:28:40.716Z,99.90
2023-05-10T03:31:44.135Z,99.90
2023-05-10T03:34:47.341Z,99.90
2023-05-10T03:37:51.861Z,99.90
2023-05-10T03:40:54.973Z,99.90
2023-05-10T03:43:58.054Z,99.90
2023-05-10T03:47:01.155Z,99.90
2023-05-10T03:50:04.354Z,99.90
2023-05-10T03:53:08.777Z,99.90
2023-05-10T03:56:11.846Z,99.90
2023-05-10T03:59:14.962Z,99.90
2023-05-10T04:02:18.093Z,99.90
2023-05-10T04:05:21.389Z,99.90
2023-05-10T04:08:25.790Z,99.90
2023-05-10T04:11:29.022Z,99.90
2023-05-10T04:14:32.204Z,99.90
2023-05-10T04:17:35.411Z,99.90
2023-05-10T04:20:38.554Z,99.90
2023-05-10T04:23:43.263Z,99.90
2023-05-10T04:26:46.513Z,99.90
2023-05-10T04:29:49.560Z,99.90
2023-05-10T04:32:52.697Z,99.90
2023-05-10T04:35:55.889Z,99.90
2023-05-10T04:39:00.350Z,99.90
2023-05-10T04:42:04.288Z,99.90
2023-05-10T04:45:08.712Z,99.90
2023-05-10T04:48:14.511Z,99.90
2023-05-10T04:51:17.565Z,99.90
2023-05-10T04:54:22.113Z,99.90
2023-05-10T04:57:25.307Z,99.90
2023-05-10T05:00:28.460Z,99.90
2023-05-10T05:03:31.654Z,99.90
2023-05-10T05:06:34.909Z,99.90
2023-05-10T05:09:39.366Z,99.90
2023-05-10T05:12:42.532Z,99.90
2023-05-10T05:15:45.798Z,99.90
2023-05-10T05:18:49.014Z,99.90
2023-05-10T05:21:52.190Z,99.90
2023-05-10T05:24:56.916Z,99.90
2023-05-10T05:28:00.020Z,99.90
2023-05-10T05:31:03.117Z,99.90
2023-05-10T05:34:06.409Z,99.90
2023-05-10T05:37:09.592Z,99.90
2023-05-10T05:40:16.280Z,99.90
2023-05-10T05:43:19.420Z,99.90
2023-05-10T05:46:22.701Z,99.90
2023-05-10T05:49:26.040Z,99.90
2023-05-10T05:52:29.239Z,99.90
2023-05-10T05:55:33.660Z,99.90
2023-05-10T05:58:36.798Z,99.90
2023-05-10T06:01:40.975Z,99.90
2023-05-10T06:04:44.873Z,99.90
2023-05-10T06:07:48.039Z,99.90
2023-05-10T06:10:52.478Z,99.90
2023-05-10T06:13:55.558Z,99.90
2023-05-10T06:17:00.762Z,99.90
2023-05-10T06:20:04.175Z,99.90
2023-05-10T06:23:07.247Z,99.90
2023-05-10T06:26:11.941Z,99.90
2023-05-10T06:29:16.291Z,99.90
2023-05-10T06:32:19.435Z,99.90
2023-05-10T06:35:22.820Z,99.80
2023-05-10T06:38:26.106Z,99.80
2023-05-10T06:41:30.655Z,99.90
2023-05-10T06:44:33.795Z,99.40
2023-05-10T06:47:38.993Z,99.20
2023-05-10T06:50:42.598Z,98.80
2023-05-10T06:53:45.730Z,98.10
2023-05-10T06:56:50.247Z,97.80
2023-05-10T06:59:53.827Z,97.00
2023-05-10T07:02:57.173Z,96.80
2023-05-10T07:06:05.253Z,96.20
2023-05-10T07:09:08.735Z,95.70
2023-05-10T07:12:15.395Z,95.90
2023-05-10T07:15:19.422Z,95.00
2023-05-10T07:18:22.704Z,94.80
2023-05-10T07:21:26.281Z,94.20
2023-05-10T07:24:29.442Z,93.20
2023-05-10T07:27:33.974Z,93.00
2023-05-10T07:30:37.198Z,92.60
2023-05-10T07:33:40.966Z,91.70
2023-05-10T07:36:44.160Z,91.90
2023-05-10T07:39:47.277Z,91.40
2023-05-10T07:42:51.805Z,90.90
2023-05-10T07:45:56.363Z,90.70
2023-05-10T07:48:59.726Z,90.20
2023-05-10T07:52:02.857Z,90.20
2023-05-10T07:55:07.088Z,90.00
2023-05-10T07:58:11.604Z,90.10
2023-05-10T08:01:14.692Z,90.20
2023-05-10T08:04:17.888Z,90.00
2023-05-10T08:07:21.103Z,89.70
2023-05-10T08:10:24.240Z,90.20
2023-05-10T08:13:28.968Z,90.10
2023-05-10T08:16:33.464Z,90.30
2023-05-10T08:19:37.717Z,90.50
2023-05-10T08:22:40.921Z,90.70
2023-05-10T08:25:44.098Z,90.30
2023-05-10T08:28:48.609Z,90.40
2023-05-10T08:31:51.932Z,89.60
2023-05-10T08:34:55.108Z,88.40
2023-05-10T08:37:58.180Z,88.30
2023-05-10T08:41:03.305Z,85.60
2023-05-10T08:44:10.644Z,85.20
2023-05-10T08:47:15.271Z,85.50
2023-05-10T08:50:20.436Z,83.40
2023-05-10T08:53:25.204Z,84.30
2023-05-10T08:56:28.876Z,85.30
2023-05-10T08:59:34.162Z,83.50
2023-05-10T09:02:39.003Z,81.30
2023-05-10T09:05:42.395Z,81.70
2023-05-10T09:08:46.765Z,78.50
2023-05-10T09:11:50.342Z,79.40
2023-05-10T09:14:56.348Z,79.70
2023-05-10T09:18:03.232Z,75.70
2023-05-10T09:21:06.454Z,73.20
2023-05-10T09:24:10.564Z,71.20
2023-05-10T09:27:16.649Z,68.90
2023-05-10T09:30:27.852Z,67.70
2023-05-10T09:33:31.085Z,67.10
2023-05-10T09:36:34.214Z,68.20
2023-05-10T09:39:38.613Z,68.70
2023-05-10T09:42:42.780Z,66.60
2023-05-10T09:45:50.861Z,64.70
2023-05-10T09:48:54.343Z,65.00
2023-05-10T09:52:05.158Z,65.20
2023-05-10T09:55:08.873Z,64.90
2023-05-10T09:58:12.197Z,65.10
2023-05-10T10:01:16.731Z,67.30
2023-05-10T10:04:21.932Z,67.20
2023-05-10T10:07:27.317Z,66.10
2023-05-10T10:10:31.255Z,65.10
2023-05-10T10:13:34.491Z,65.50
2023-05-10T10:16:45.984Z,64.50
2023-05-10T10:19:55.247Z,62.90
2023-05-10T10:22:58.532Z,60.10
2023-05-10T10:26:02.302Z,59.60
2023-05-10T10:29:15.124Z,58.40
2023-05-10T10:32:28.235Z,56.90
2023-05-10T10:35:32.647Z,57.10
2023-05-10T10:39:00.563Z,58.90
2023-05-10T10:42:04.475Z,58.00
2023-05-10T10:45:17.475Z,57.50
2023-05-10T10:48:28.010Z,58.60
2023-05-10T10:51:32.237Z,59.30
2023-05-10T10:54:35.347Z,59.00
2023-05-10T10:57:49.666Z,58.60
2023-05-10T11:01:10.809Z,59.50
2023-05-10T11:04:22.355Z,58.80
2023-05-10T11:07:25.768Z,58.60
2023-05-10T11:10:29.819Z,57.50
2023-05-10T11:13:36.106Z,59.60
2023-05-10T11:16:44.696Z,58.50
2023-05-10T11:20:10.621Z,60.00
2023-05-10T11:23:16.990Z,61.80
2023-05-10T11:26:24.278Z,62.30
2023-05-10T11:29:28.488Z,62.00
2023-05-10T11:32:32.641Z,61.70
2023-05-10T11:35:43.600Z,62.20
2023-05-10T11:38:47.484Z,63.80
2023-05-10T11:41:51.422Z,64.90
2023-05-10T11:44:54.522Z,67.20
2023-05-10T11:47:59.950Z,69.00
2023-05-10T11:51:04.937Z,68.80
2023-05-10T11:54:10.336Z,69.90
2023-05-10T11:57:13.525Z,69.70
2023-05-10T12:00:17.388Z,68.80
2023-05-10T12:03:21.203Z,68.60
2023-05-10T12:06:28.857Z,69.10
2023-05-10T12:09:43.115Z,68.90
2023-05-10T12:12:49.166Z,67.60
2023-05-10T12:15:52.619Z,68.60
2023-05-10T12:18:59.756Z,68.30
2023-05-10T12:22:07.200Z,69.50
2023-05-10T12:25:12.030Z,69.40
2023-05-10T12:28:15.128Z,69.80
2023-05-10T12:31:18.261Z,69.20
2023-05-10T12:34:34.063Z,70.70
2023-05-10T12:37:40.071Z,71.20
2023-05-10T12:40:43.295Z,71.20
2023-05-10T12:43:47.577Z,71.50
2023-05-10T12:46:50.767Z,71.70
2023-05-10T12:49:54.013Z,71.30
2023-05-10T12:52:58.563Z,71.80
2023-05-10T12:56:01.688Z,71.60
2023-05-10T12:59:04.850Z,71.80
2023-05-10T13:02:08.874Z,71.60
2023-05-10T13:05:14.122Z,71.40
2023-05-10T13:08:18.715Z,72.20
2023-05-10T13:11:22.687Z,71.30
2023-05-10T13:14:26.360Z,71.60
2023-05-10T13:17:30.066Z,70.30
2023-05-10T13:20:33.734Z,69.90
2023-05-10T13:23:38.257Z,69.80
2023-05-10T13:26:41.349Z,69.80
2023-05-10T13:29:44.938Z,70.50
2023-05-10T13:32:48.653Z,71.50
2023-05-10T13:35:52.814Z,72.10
2023-05-10T13:38:58.833Z,72.60
2023-05-10T13:42:01.940Z,72.50
2023-05-10T13:45:05.676Z,71.80
2023-05-10T13:48:08.781Z,72.70
2023-05-10T13:51:11.912Z,73.20
2023-05-10T13:54:18.390Z,73.60
2023-05-10T13:57:21.493Z,73.20
2023-05-10T14:00:24.680Z,73.50
2023-05-10T14:03:27.810Z,73.20
2023-05-10T14:06:31.692Z,72.70
2023-05-10T14:09:36.197Z,72.30
2023-05-10T14:12:39.331Z,71.40
2023-05-10T14:15:42.410Z,71.10
2023-05-10T14:18:45.518Z,69.60
2023-05-10T14:21:49.025Z,69.10
2023-05-10T14:24:53.444Z,69.50
2023-05-10T14:27:56.493Z,69.90
2023-05-10T14:30:59.979Z,69.50
2023-05-10T14:34:03.965Z,69.80
2023-05-10T14:37:07.396Z,69.20
2023-05-10T14:40:15.117Z,69.50
2023-05-10T14:43:18.218Z,70.30
2023-05-10T14:46:21.319Z,69.90
2023-05-10T14:49:26.728Z,70.20
2023-05-10T14:52:30.095Z,70.30
2023-05-10T14:55:35.736Z,70.40
2023-05-10T14:58:38.769Z,69.50
2023-05-10T15:01:43.204Z,68.80
2023-05-10T15:04:46.803Z,69.20
2023-05-10T15:07:50.380Z,69.10
2023-05-10T15:10:56.585Z,68.50
2023-05-10T15:13:59.801Z,68.10
2023-05-10T15:17:02.856Z,67.60
2023-05-10T15:20:06.701Z,67.40
2023-05-10T15:23:09.809Z,67.30
2023-05-10T15:26:15.940Z,67.70
2023-05-10T15:29:20.945Z,68.30
2023-05-10T15:32:24.029Z,68.70
2023-05-10T15:35:28.036Z,68.60
2023-05-10T15:38:31.153Z,68.90
2023-05-10T15:41:35.878Z,68.60
2023-05-10T15:44:39.495Z,67.70
2023-05-10T15:47:42.716Z,67.30
2023-05-10T15:50:45.976Z,67.60
2023-05-10T15:54:05.214Z,67.80
2023-05-10T15:57:11.546Z,67.30
2023-05-10T16:00:15.185Z,66.70
2023-05-10T16:03:18.338Z,67.50
2023-05-10T16:06:21.572Z,67.90
2023-05-10T16:09:26.213Z,68.50
2023-05-10T16:12:31.487Z,68.70
2023-05-10T16:15:34.658Z,70.00
2023-05-10T16:18:38.050Z,70.60
2023-05-10T16:21:41.349Z,71.40
2023-05-10T16:24:44.531Z,72.20
2023-05-10T16:27:48.976Z,73.40
2023-05-10T16:30:52.983Z,74.40
2023-05-10T16:33:56.150Z,75.00
2023-05-10T16:36:59.217Z,75.30
2023-05-10T16:40:02.365Z,75.20
2023-05-10T16:43:07.822Z,75.80
2023-05-10T16:46:13.952Z,75.60
2023-05-10T16:49:17.118Z,75.10
2023-05-10T16:52:20.227Z,75.80
2023-05-10T16:55:25.539Z,75.60
2023-05-10T16:58:30.924Z,75.00
2023-05-10T17:01:35.362Z,75.00
2023-05-10T17:04:38.539Z,75.20
2023-05-10T17:07:41.665Z,75.10
2023-05-10T17:10:45.057Z,76.00
2023-05-10T17:13:49.887Z,76.10
2023-05-10T17:16:53.368Z,77.10
2023-05-10T17:19:56.659Z,76.50
2023-05-10T17:23:00.326Z,77.00
2023-05-10T17:26:05.559Z,77.30
2023-05-10T17:29:10.829Z,77.60
2023-05-10T17:32:13.892Z,77.60
2023-05-10T17:35:17.363Z,78.00
2023-05-10T17:38:20.696Z,78.50
2023-05-10T17:41:23.799Z,79.20
2023-05-10T17:44:28.694Z,78.80
2023-05-10T17:47:32.962Z,79.30
2023-05-10T17:50:36.150Z,79.90
2023-05-10T17:53:39.942Z,80.20
2023-05-10T17:56:43.141Z,80.50
2023-05-10T17:59:47.638Z,80.70
2023-05-10T18:02:50.815Z,81.60
2023-05-10T18:05:55.347Z,81.10
2023-05-10T18:08:58.603Z,81.70
2023-05-10T18:12:03.645Z,81.80
2023-05-10T18:15:09.396Z,82.00
2023-05-10T18:18:12.707Z,82.30
2023-05-10T18:21:15.866Z,82.40
2023-05-10T18:24:26.516Z,83.20
2023-05-10T18:27:43.527Z,83.20
2023-05-10T18:30:48.412Z,82.40
2023-05-10T18:33:51.608Z,82.80
2023-05-10T18:36:54.908Z,83.40
2023-05-10T18:39:58.212Z,83.80
2023-05-10T18:43:01.995Z,84.00
2023-05-10T18:46:06.986Z,84.30
2023-05-10T18:49:10.554Z,85.00
2023-05-10T18:52:14.109Z,85.20
2023-05-10T18:55:17.350Z,85.50
2023-05-10T18:58:20.639Z,86.00
2023-05-10T19:01:26.418Z,86.20
2023-05-10T19:04:29.887Z,86.40
2023-05-10T19:07:33.344Z,86.50
2023-05-10T19:10:36.684Z,87.60
2023-05-10T19:13:40.720Z,87.10
2023-05-10T19:16:46.293Z,87.40
2023-05-10T19:19:50.151Z,87.40
2023-05-10T19:23:08.518Z,87.70
2023-05-10T19:26:13.792Z,88.10
2023-05-10T19:29:17.139Z,88.30
2023-05-10T19:32:25.462Z,88.70
2023-05-10T19:35:29.379Z,88.80
2023-05-10T19:38:33.666Z,89.30
2023-05-10T19:41:37.018Z,89.70
2023-05-10T19:44:40.414Z,90.00
2023-05-10T19:47:44.968Z,90.60
2023-05-10T19:50:48.541Z,90.30
2023-05-10T19:53:52.173Z,90.40
2023-05-10T19:56:56.024Z,90.50
2023-05-10T19:59:59.578Z,90.90
2023-05-10T20:03:08.417Z,90.60
2023-05-10T20:06:12.893Z,90.90
2023-05-10T20:09:16.180Z,90.50
2023-05-10T20:12:19.431Z,90.70
2023-05-10T20:15:24.322Z,90.80
2023-05-10T20:18:28.905Z,90.90
2023-05-10T20:21:34.478Z,90.90
2023-05-10T20:24:38.130Z,90.90
2023-05-10T20:27:41.637Z,91.00
2023-05-10T20:30:45.118Z,91.20
2023-05-10T20:33:49.687Z,91.20
2023-05-10T20:36:53.120Z,91.20
2023-05-10T20:39:56.798Z,91.30
2023-05-10T20:42:59.964Z,91.50
2023-05-10T20:46:05.547Z,91.20
2023-05-10T20:49:10.778Z,91.20
2023-05-10T20:52:13.989Z,91.20
2023-05-10T20:55:17.142Z,91.20
2023-05-10T20:58:20.298Z,91.30
2023-05-10T21:01:23.564Z,91.30
2023-05-10T21:04:28.123Z,91.40
2023-05-10T21:07:32.875Z,91.50
2023-05-10T21:10:35.940Z,91.80
2023-05-10T21:13:39.058Z,91.50
2023-05-10T21:16:42.173Z,91.60
2023-05-10T21:19:46.764Z,91.60
2023-05-10T21:22:49.887Z,91.40
2023-05-10T21:25:53.621Z,91.50
2023-05-10T21:28:58.197Z,91.60
2023-05-10T21:32:01.415Z,91.80
2023-05-10T21:35:06.633Z,92.00
2023-05-10T21:38:09.919Z,92.20
2023-05-10T21:41:13.085Z,92.30
2023-05-10T21:44:16.245Z,92.60
2023-05-10T21:47:19.407Z,92.90
2023-05-10T21:50:24.017Z,93.00
2023-05-10T21:53:27.194Z,93.70
2023-05-10T21:56:30.352Z,93.90
2023-05-10T21:59:33.440Z,94.30
2023-05-10T22:02:36.753Z,94.30
2023-05-10T22:05:41.335Z,94.40
2023-05-10T22:08:44.409Z,94.50
2023-05-10T22:11:48.718Z,94.60
2023-05-10T22:15:06.396Z,94.70
2023-05-10T22:18:12.954Z,94.70
2023-05-10T22:21:17.454Z,94.70
2023-05-10T22:24:20.592Z,94.70
2023-05-10T22:27:23.637Z,94.50
2023-05-10T22:30:26.703Z,94.20
2023-05-10T22:33:29.819Z,94.30
2023-05-10T22:36:34.255Z,94.80
2023-05-10T22:39:37.358Z,94.30
2023-05-10T22:42:40.691Z,94.50
2023-05-10T22:45:43.818Z,95.00
2023-05-10T22:48:46.923Z,95.00
2023-05-10T22:51:51.392Z,95.00
2023-05-10T22:54:54.504Z,95.50
2023-05-10T22:57:57.625Z,95.90
2023-05-10T23:01:00.835Z,96.10
2023-05-10T23:04:03.913Z,96.50
2023-05-10T23:07:08.345Z,96.90
2023-05-10T23:10:12.124Z,97.30
2023-05-10T23:13:15.268Z,97.40
2023-05-10T23:16:18.703Z,97.80
2023-05-10T23:19:21.882Z,98.00
2023-05-10T23:22:26.468Z,98.00
2023-05-10T23:25:29.569Z,98.20
2023-05-10T23:28:32.704Z,98.30
2023-05-10T23:31:37.155Z,98.60
2023-05-10T23:34:40.346Z,98.80
2023-05-10T23:37:44.754Z,99.40
2023-05-10T23:40:49.959Z,99.70
2023-05-10T23:43:53.128Z,99.90
2023-05-10T23:46:56.284Z,99.90
2023-05-10T23:49:59.483Z,99.90
2023-05-10T23:53:03.943Z,99.90
2023-05-10T23:56:07.504Z,99.90
2023-05-10T23:59:10.682Z,99.90
